Main page
METAR-TAF:

METAR-TAF

Airports :

Fujairah International Airport

Fujairah, United Arab Emirates

latitude: 25-06N, longitude: 056-20E, elevation: 28 m

Current weather observation

The report was made 32 minutes ago, at 21:00 UTC
Wind 4 kt from the West/Northwest
Temperature 17°C
Humidity 48%
Pressure 1018 hPa
Visibility: 7000 m

METAR: OMFJ 222100Z 30004KT 7000 NSC 17/06 Q1018 A3007

Time: 01:32 (21:32 UTC)

Forecast

The report was made 4 hours and 32 minutes ago, at 17:00 UTC
Forecast valid from 22 at 18 UTC to 23 at 24 UTC
Wind 3 kt from variable directions
Visibility: 5000 m
widespread dust
Becoming
from 22 at 22 UTC to 22 at 24 UTC
Wind 8 kt from the West/Northwest
Visibility: 8000 m
Becoming
from 23 at 08 UTC to 23 at 10 UTC
Wind 7 kt from the East
Becoming
from 23 at 18 UTC to 23 at 20 UTC
Wind 6 kt from the West/Northwest

TAF: OMFJ 221700Z 2218/2324 VRB03KT 5000 DU NSC BECMG 2222/2224 29008KT 8000 NSW BECMG 2308/2310 09007KT BECMG 2318/2320 30006KT

Weather observations and forecasts of more than 4000 airports (METAR and TAF reports).

The available stations are represented by yellow and red dots on the map.

Hover mouse over dot to see the name of the station.

Then click to see weather observations and forecasts.

To change the map : click on the green buttons with a black cross to zoom in, on the green button with a dash to zoom out, or on the green arrows for adjacent maps.


METAR-TAF: